sensor_id;sensor_type;location;lat;lon;timestamp;temperature;humidity
4904;DHT22;2467;48.142;11.616;2023-07-09T00:00:30;23.00;94.80
4904;DHT22;2467;48.142;11.616;2023-07-09T00:01:02;23.00;95.10
4904;DHT22;2467;48.142;11.616;2023-07-09T00:01:34;22.90;95.20
4904;DHT22;2467;48.142;11.616;2023-07-09T00:02:09;22.90;95.50
4904;DHT22;2467;48.142;11.616;2023-07-09T00:02:42;22.90;95.50
4904;DHT22;2467;48.142;11.616;2023-07-09T00:03:15;22.90;95.60
4904;DHT22;2467;48.142;11.616;2023-07-09T00:03:48;22.90;95.70
4904;DHT22;2467;48.142;11.616;2023-07-09T00:04:24;22.90;95.80
4904;DHT22;2467;48.142;11.616;2023-07-09T00:04:56;22.90;95.90
4904;DHT22;2467;48.142;11.616;2023-07-09T00:05:28;22.90;96.00
4904;DHT22;2467;48.142;11.616;2023-07-09T00:06:01;22.90;95.90
4904;DHT22;2467;48.142;11.616;2023-07-09T00:06:34;23.00;96.00
4904;DHT22;2467;48.142;11.616;2023-07-09T00:07:14;23.00;96.00
4904;DHT22;2467;48.142;11.616;2023-07-09T00:07:48;23.00;95.80
4904;DHT22;2467;48.142;11.616;2023-07-09T00:08:25;23.00;95.80
4904;DHT22;2467;48.142;11.616;2023-07-09T00:08:58;23.00;95.70
4904;DHT22;2467;48.142;11.616;2023-07-09T00:09:31;23.00;95.60
4904;DHT22;2467;48.142;11.616;2023-07-09T00:10:05;23.00;95.60
4904;DHT22;2467;48.142;11.616;2023-07-09T00:10:37;23.00;95.60
4904;DHT22;2467;48.142;11.616;2023-07-09T00:11:11;23.00;95.50
4904;DHT22;2467;48.142;11.616;2023-07-09T00:11:43;23.00;95.50
4904;DHT22;2467;48.142;11.616;2023-07-09T00:12:16;23.00;95.50
4904;DHT22;2467;48.142;11.616;2023-07-09T00:12:48;23.00;95.40
4904;DHT22;2467;48.142;11.616;2023-07-09T00:13:22;23.00;95.30
4904;DHT22;2467;48.142;11.616;2023-07-09T00:13:54;23.00;95.40
4904;DHT22;2467;48.142;11.616;2023-07-09T00:14:26;23.00;95.50
4904;DHT22;2467;48.142;11.616;2023-07-09T00:14:58;23.00;95.50
4904;DHT22;2467;48.142;11.616;2023-07-09T00:15:30;23.00;95.40
4904;DHT22;2467;48.142;11.616;2023-07-09T00:16:11;23.00;95.50
4904;DHT22;2467;48.142;11.616;2023-07-09T00:16:44;23.00;95.60
4904;DHT22;2467;48.142;11.616;2023-07-09T00:17:25;23.00;95.70
4904;DHT22;2467;48.142;11.616;2023-07-09T00:17:58;23.00;95.80
4904;DHT22;2467;48.142;11.616;2023-07-09T00:18:32;23.00;95.90
4904;DHT22;2467;48.142;11.616;2023-07-09T00:19:11;23.00;96.00
4904;DHT22;2467;48.142;11.616;2023-07-09T00:19:46;23.00;96.00
4904;DHT22;2467;48.142;11.616;2023-07-09T00:20:19;22.90;96.20
4904;DHT22;2467;48.142;11.616;2023-07-09T00:20:50;22.90;96.30
4904;DHT22;2467;48.142;11.616;2023-07-09T00:21:23;22.90;96.30
4904;DHT22;2467;48.142;11.616;2023-07-09T00:21:57;22.90;96.30
4904;DHT22;2467;48.142;11.616;2023-07-09T00:22:29;22.90;96.40
4904;DHT22;2467;48.142;11.616;2023-07-09T00:23:02;22.90;96.40
4904;DHT22;2467;48.142;11.616;2023-07-09T00:23:36;22.90;96.50
4904;DHT22;2467;48.142;11.616;2023-07-09T00:24:10;22.90;96.70
4904;DHT22;2467;48.142;11.616;2023-07-09T00:24:43;22.90;96.70
4904;DHT22;2467;48.142;11.616;2023-07-09T00:25:16;22.90;96.80
4904;DHT22;2467;48.142;11.616;2023-07-09T00:25:48;22.90;96.80
4904;DHT22;2467;48.142;11.616;2023-07-09T00:26:20;22.90;96.80
4904;DHT22;2467;48.142;11.616;2023-07-09T00:26:55;22.90;96.90
4904;DHT22;2467;48.142;11.616;2023-07-09T00:27:28;22.90;97.10
4904;DHT22;2467;48.142;11.616;2023-07-09T00:28:00;22.90;97.20
4904;DHT22;2467;48.142;11.616;2023-07-09T00:28:32;22.90;97.20
4904;DHT22;2467;48.142;11.616;2023-07-09T00:29:07;22.90;97.30
4904;DHT22;2467;48.142;11.616;2023-07-09T00:29:39;22.90;97.30
4904;DHT22;2467;48.142;11.616;2023-07-09T00:30:15;22.90;97.60
4904;DHT22;2467;48.142;11.616;2023-07-09T00:30:49;22.90;97.90
4904;DHT22;2467;48.142;11.616;2023-07-09T00:31:21;22.90;98.20
4904;DHT22;2467;48.142;11.616;2023-07-09T00:31:53;22.90;98.50
4904;DHT22;2467;48.142;11.616;2023-07-09T00:32:24;22.90;98.70
4904;DHT22;2467;48.142;11.616;2023-07-09T00:32:58;22.80;98.80
4904;DHT22;2467;48.142;11.616;2023-07-09T00:33:30;22.80;98.90
4904;DHT22;2467;48.142;11.616;2023-07-09T00:34:03;22.80;99.00
4904;DHT22;2467;48.142;11.616;2023-07-09T00:34:36;22.80;99.10
4904;DHT22;2467;48.142;11.616;2023-07-09T00:35:10;22.80;99.30
4904;DHT22;2467;48.142;11.616;2023-07-09T00:35:47;22.80;99.40
4904;DHT22;2467;48.142;11.616;2023-07-09T00:36:28;22.80;99.60
4904;DHT22;2467;48.142;11.616;2023-07-09T00:37:00;22.80;99.40
4904;DHT22;2467;48.142;11.616;2023-07-09T00:37:32;22.80;99.50
4904;DHT22;2467;48.142;11.616;2023-07-09T00:38:04;22.70;99.50
4904;DHT22;2467;48.142;11.616;2023-07-09T00:38:36;22.80;99.60
4904;DHT22;2467;48.142;11.616;2023-07-09T00:39:15;22.80;99.50
4904;DHT22;2467;48.142;11.616;2023-07-09T00:39:47;22.80;99.40
4904;DHT22;2467;48.142;11.616;2023-07-09T00:40:22;22.80;99.30
4904;DHT22;2467;48.142;11.616;2023-07-09T00:41:01;22.80;99.20
4904;DHT22;2467;48.142;11.616;2023-07-09T00:41:35;22.80;99.10
4904;DHT22;2467;48.142;11.616;2023-07-09T00:42:12;22.80;99.20
4904;DHT22;2467;48.142;11.616;2023-07-09T00:42:48;22.80;99.50
4904;DHT22;2467;48.142;11.616;2023-07-09T00:43:22;22.70;99.20
4904;DHT22;2467;48.142;11.616;2023-07-09T00:43:54;22.70;99.20
4904;DHT22;2467;48.142;11.616;2023-07-09T00:44:28;22.70;99.30
4904;DHT22;2467;48.142;11.616;2023-07-09T00:45:19;22.70;99.40
4904;DHT22;2467;48.142;11.616;2023-07-09T00:47:06;22.70;99.30
4904;DHT22;2467;48.142;11.616;2023-07-09T00:47:15;22.70;99.50
4904;DHT22;2467;48.142;11.616;2023-07-09T00:47:53;22.60;99.60
4904;DHT22;2467;48.142;11.616;2023-07-09T00:48:27;22.60;99.90
4904;DHT22;2467;48.142;11.616;2023-07-09T00:49:05;22.60;99.90
4904;DHT22;2467;48.142;11.616;2023-07-09T00:49:40;22.60;99.90
4904;DHT22;2467;48.142;11.616;2023-07-09T00:50:31;22.60;99.90
4904;DHT22;2467;48.142;11.616;2023-07-09T00:51:09;22.60;99.90
4904;DHT22;2467;48.142;11.616;2023-07-09T00:51:45;22.50;99.90
4904;DHT22;2467;48.142;11.616;2023-07-09T00:52:23;22.50;99.90
4904;DHT22;2467;48.142;11.616;2023-07-09T00:52:59;22.50;99.90
4904;DHT22;2467;48.142;11.616;2023-07-09T00:53:37;22.50;99.90
4904;DHT22;2467;48.142;11.616;2023-07-09T00:54:13;22.50;99.90
4904;DHT22;2467;48.142;11.616;2023-07-09T00:54:46;22.50;99.90
4904;DHT22;2467;48.142;11.616;2023-07-09T00:55:23;22.50;99.90
4904;DHT22;2467;48.142;11.616;2023-07-09T00:56:01;22.50;99.90
4904;DHT22;2467;48.142;11.616;2023-07-09T00:56:39;22.50;99.90
4904;DHT22;2467;48.142;11.616;2023-07-09T00:57:15;22.50;99.90
4904;DHT22;2467;48.142;11.616;2023-07-09T00:57:52;22.50;99.90
4904;DHT22;2467;48.142;11.616;2023-07-09T00:58:28;22.50;99.90
4904;DHT22;2467;48.142;11.616;2023-07-09T00:59:04;22.50;99.90
4904;DHT22;2467;48.142;11.616;2023-07-09T00:59:38;22.50;99.90
4904;DHT22;2467;48.142;11.616;2023-07-09T01:00:13;22.50;99.90
4904;DHT22;2467;48.142;11.616;2023-07-09T01:00:51;22.40;99.90
4904;DHT22;2467;48.142;11.616;2023-07-09T01:01:26;22.50;99.90
4904;DHT22;2467;48.142;11.616;2023-07-09T01:01:59;22.40;99.90
4904;DHT22;2467;48.142;11.616;2023-07-09T01:02:31;22.40;99.90
4904;DHT22;2467;48.142;11.616;2023-07-09T01:03:06;22.40;99.90
4904;DHT22;2467;48.142;11.616;2023-07-09T01:03:40;22.40;99.90
4904;DHT22;2467;48.142;11.616;2023-07-09T01:04:13;22.40;99.90
4904;DHT22;2467;48.142;11.616;2023-07-09T01:04:48;22.40;99.90
4904;DHT22;2467;48.142;11.616;2023-07-09T01:05:22;22.40;99.90
4904;DHT22;2467;48.142;11.616;2023-07-09T01:05:56;22.40;99.90
4904;DHT22;2467;48.142;11.616;2023-07-09T01:06:32;22.40;99.90
4904;DHT22;2467;48.142;11.616;2023-07-09T01:07:06;22.40;99.90
4904;DHT22;2467;48.142;11.616;2023-07-09T01:07:39;22.40;99.90
4904;DHT22;2467;48.142;11.616;2023-07-09T01:08:12;22.40;99.90
4904;DHT22;2467;48.142;11.616;2023-07-09T01:08:44;22.50;99.90
4904;DHT22;2467;48.142;11.616;2023-07-09T01:09:17;22.50;99.90
4904;DHT22;2467;48.142;11.616;2023-07-09T01:09:50;22.50;99.90
4904;DHT22;2467;48.142;11.616;2023-07-09T01:10:22;22.50;99.90
4904;DHT22;2467;48.142;11.616;2023-07-09T01:10:54;22.50;99.90
4904;DHT22;2467;48.142;11.616;2023-07-09T01:11:26;22.50;99.90
4904;DHT22;2467;48.142;11.616;2023-07-09T01:11:59;22.50;99.90
4904;DHT22;2467;48.142;11.616;2023-07-09T01:12:32;22.50;99.90
4904;DHT22;2467;48.142;11.616;2023-07-09T01:13:04;22.50;99.90
4904;DHT22;2467;48.142;11.616;2023-07-09T01:13:36;22.50;99.90
4904;DHT22;2467;48.142;11.616;2023-07-09T01:14:13;22.50;99.90
4904;DHT22;2467;48.142;11.616;2023-07-09T01:14:46;22.50;99.90
4904;DHT22;2467;48.142;11.616;2023-07-09T01:15:23;22.50;99.90
4904;DHT22;2467;48.142;11.616;2023-07-09T01:15:55;22.50;99.90
4904;DHT22;2467;48.142;11.616;2023-07-09T01:16:31;22.50;99.90
4904;DHT22;2467;48.142;11.616;2023-07-09T01:17:05;22.50;99.90
4904;DHT22;2467;48.142;11.616;2023-07-09T01:17:39;22.50;99.90
4904;DHT22;2467;48.142;11.616;2023-07-09T01:18:12;22.50;99.90
4904;DHT22;2467;48.142;11.616;2023-07-09T01:18:46;22.50;99.90
4904;DHT22;2467;48.142;11.616;2023-07-09T01:19:21;22.40;99.90
4904;DHT22;2467;48.142;11.616;2023-07-09T01:19:56;22.40;99.90
4904;DHT22;2467;48.142;11.616;2023-07-09T01:20:30;22.40;99.90
4904;DHT22;2467;48.142;11.616;2023-07-09T01:21:08;22.40;99.90
4904;DHT22;2467;48.142;11.616;2023-07-09T01:21:41;22.40;99.90
4904;DHT22;2467;48.142;11.616;2023-07-09T01:22:15;22.40;99.90
4904;DHT22;2467;48.142;11.616;2023-07-09T01:22:50;22.30;99.90
4904;DHT22;2467;48.142;11.616;2023-07-09T01:23:26;22.30;99.90
4904;DHT22;2467;48.142;11.616;2023-07-09T01:24:11;22.30;99.90
4904;DHT22;2467;48.142;11.616;2023-07-09T01:24:50;22.30;99.90
4904;DHT22;2467;48.142;11.616;2023-07-09T01:25:23;22.30;99.90
4904;DHT22;2467;48.142;11.616;2023-07-09T01:25:56;22.30;99.90
4904;DHT22;2467;48.142;11.616;2023-07-09T01:26:28;22.20;99.90
4904;DHT22;2467;48.142;11.616;2023-07-09T01:27:00;22.30;99.90
4904;DHT22;2467;48.142;11.616;2023-07-09T01:27:35;22.30;99.90
4904;DHT22;2467;48.142;11.616;2023-07-09T01:28:09;22.30;99.90
4904;DHT22;2467;48.142;11.616;2023-07-09T01:28:41;22.30;99.90
4904;DHT22;2467;48.142;11.616;2023-07-09T01:29:15;22.30;99.90
4904;DHT22;2467;48.142;11.616;2023-07-09T01:29:47;22.30;99.90
4904;DHT22;2467;48.142;11.616;2023-07-09T01:30:23;22.30;99.90
4904;DHT22;2467;48.142;11.616;2023-07-09T01:30:55;22.20;99.90
4904;DHT22;2467;48.142;11.616;2023-07-09T01:31:28;22.30;99.90
4904;DHT22;2467;48.142;11.616;2023-07-09T01:32:00;22.30;99.90
4904;DHT22;2467;48.142;11.616;2023-07-09T01:32:32;22.30;99.90
4904;DHT22;2467;48.142;11.616;2023-07-09T01:33:05;22.30;99.90
4904;DHT22;2467;48.142;11.616;2023-07-09T01:33:38;22.30;99.90
4904;DHT22;2467;48.142;11.616;2023-07-09T01:34:11;22.30;99.90
4904;DHT22;2467;48.142;11.616;2023-07-09T01:34:43;22.30;99.90
4904;DHT22;2467;48.142;11.616;2023-07-09T01:35:16;22.30;99.90
4904;DHT22;2467;48.142;11.616;2023-07-09T01:35:51;22.30;99.90
4904;DHT22;2467;48.142;11.616;2023-07-09T01:36:26;22.30;99.90
4904;DHT22;2467;48.142;11.616;2023-07-09T01:37:00;22.20;99.90
4904;DHT22;2467;48.142;11.616;2023-07-09T01:37:34;22.30;99.90
4904;DHT22;2467;48.142;11.616;2023-07-09T01:38:08;22.20;99.90
4904;DHT22;2467;48.142;11.616;2023-07-09T01:38:40;22.30;99.90
4904;DHT22;2467;48.142;11.616;2023-07-09T01:39:11;22.20;99.90
4904;DHT22;2467;48.142;11.616;2023-07-09T01:39:44;22.30;99.90
4904;DHT22;2467;48.142;11.616;2023-07-09T01:40:19;22.30;99.90
4904;DHT22;2467;48.142;11.616;2023-07-09T01:41:02;22.30;99.90
4904;DHT22;2467;48.142;11.616;2023-07-09T01:41:34;22.20;99.90
4904;DHT22;2467;48.142;11.616;2023-07-09T01:42:07;22.20;99.90
4904;DHT22;2467;48.142;11.616;2023-07-09T01:42:39;22.20;99.90
4904;DHT22;2467;48.142;11.616;2023-07-09T01:43:12;22.20;99.90
4904;DHT22;2467;48.142;11.616;2023-07-09T01:43:45;22.20;99.90
4904;DHT22;2467;48.142;11.616;2023-07-09T01:44:17;22.20;99.90
4904;DHT22;2467;48.142;11.616;2023-07-09T01:44:49;22.20;99.90
4904;DHT22;2467;48.142;11.616;2023-07-09T01:45:22;22.20;99.90
4904;DHT22;2467;48.142;11.616;2023-07-09T01:45:54;22.20;99.90
4904;DHT22;2467;48.142;11.616;2023-07-09T01:46:29;22.20;99.90
4904;DHT22;2467;48.142;11.616;2023-07-09T01:47:02;22.20;99.90
4904;DHT22;2467;48.142;11.616;2023-07-09T01:47:35;22.20;99.90
4904;DHT22;2467;48.142;11.616;2023-07-09T01:48:08;22.20;99.90
4904;DHT22;2467;48.142;11.616;2023-07-09T01:48:47;22.20;99.90
4904;DHT22;2467;48.142;11.616;2023-07-09T01:49:21;22.10;99.90
4904;DHT22;2467;48.142;11.616;2023-07-09T01:49:53;22.10;99.90
4904;DHT22;2467;48.142;11.616;2023-07-09T01:50:29;22.10;99.90
4904;DHT22;2467;48.142;11.616;2023-07-09T01:51:02;22.10;99.90
4904;DHT22;2467;48.142;11.616;2023-07-09T01:51:35;22.10;99.90
4904;DHT22;2467;48.142;11.616;2023-07-09T01:52:07;22.10;99.90
4904;DHT22;2467;48.142;11.616;2023-07-09T01:52:41;22.10;99.90
4904;DHT22;2467;48.142;11.616;2023-07-09T01:53:16;22.10;99.90
4904;DHT22;2467;48.142;11.616;2023-07-09T01:53:49;22.10;99.90
4904;DHT22;2467;48.142;11.616;2023-07-09T01:54:21;22.10;99.90
4904;DHT22;2467;48.142;11.616;2023-07-09T01:54:53;22.10;99.90
4904;DHT22;2467;48.142;11.616;2023-07-09T01:55:26;22.10;99.90
4904;DHT22;2467;48.142;11.616;2023-07-09T01:56:00;22.10;99.90
4904;DHT22;2467;48.142;11.616;2023-07-09T01:56:32;22.10;99.90
4904;DHT22;2467;48.142;11.616;2023-07-09T01:57:17;22.10;99.90
4904;DHT22;2467;48.142;11.616;2023-07-09T01:57:51;22.10;99.90
4904;DHT22;2467;48.142;11.616;2023-07-09T01:58:23;22.00;99.90
4904;DHT22;2467;48.142;11.616;2023-07-09T01:58:57;22.00;99.90
4904;DHT22;2467;48.142;11.616;2023-07-09T01:59:32;22.00;99.90
4904;DHT22;2467;48.142;11.616;2023-07-09T02:00:06;22.00;99.90
4904;DHT22;2467;48.142;11.616;2023-07-09T02:00:40;22.00;99.90
4904;DHT22;2467;48.142;11.616;2023-07-09T02:01:13;22.00;99.90
4904;DHT22;2467;48.142;11.616;2023-07-09T02:01:46;21.90;99.90
4904;DHT22;2467;48.142;11.616;2023-07-09T02:02:19;21.90;99.90
4904;DHT22;2467;48.142;11.616;2023-07-09T02:02:54;21.90;99.90
4904;DHT22;2467;48.142;11.616;2023-07-09T02:03:29;21.90;99.90
4904;DHT22;2467;48.142;11.616;2023-07-09T02:04:01;21.90;99.90
4904;DHT22;2467;48.142;11.616;2023-07-09T02:04:33;21.90;99.90
4904;DHT22;2467;48.142;11.616;2023-07-09T02:05:06;21.90;99.90
4904;DHT22;2467;48.142;11.616;2023-07-09T02:05:40;21.90;99.90
4904;DHT22;2467;48.142;11.616;2023-07-09T02:06:12;21.80;99.90
4904;DHT22;2467;48.142;11.616;2023-07-09T02:06:45;21.80;99.90
4904;DHT22;2467;48.142;11.616;2023-07-09T02:07:18;21.80;99.90
4904;DHT22;2467;48.142;11.616;2023-07-09T02:07:51;21.90;99.90
4904;DHT22;2467;48.142;11.616;2023-07-09T02:08:24;21.90;99.90
4904;DHT22;2467;48.142;11.616;2023-07-09T02:08:56;21.90;99.90
4904;DHT22;2467;48.142;11.616;2023-07-09T02:09:28;21.90;99.90
4904;DHT22;2467;48.142;11.616;2023-07-09T02:10:01;21.90;99.90
4904;DHT22;2467;48.142;11.616;2023-07-09T02:10:33;21.90;99.90
4904;DHT22;2467;48.142;11.616;2023-07-09T02:11:05;21.90;99.90
4904;DHT22;2467;48.142;11.616;2023-07-09T02:11:38;21.90;99.90
4904;DHT22;2467;48.142;11.616;2023-07-09T02:12:10;21.90;99.90
4904;DHT22;2467;48.142;11.616;2023-07-09T02:12:43;21.90;99.90
4904;DHT22;2467;48.142;11.616;2023-07-09T02:13:16;21.90;99.90
4904;DHT22;2467;48.142;11.616;2023-07-09T02:13:47;21.90;99.90
4904;DHT22;2467;48.142;11.616;2023-07-09T02:14:19;21.90;99.90
4904;DHT22;2467;48.142;11.616;2023-07-09T02:14:51;21.90;99.90
4904;DHT22;2467;48.142;11.616;2023-07-09T02:15:24;21.90;99.90
4904;DHT22;2467;48.142;11.616;2023-07-09T02:15:56;21.90;99.90
4904;DHT22;2467;48.142;11.616;2023-07-09T02:16:28;21.90;99.90
4904;DHT22;2467;48.142;11.616;2023-07-09T02:17:00;21.90;99.90
4904;DHT22;2467;48.142;11.616;2023-07-09T02:17:33;21.90;99.90
4904;DHT22;2467;48.142;11.616;2023-07-09T02:18:05;21.90;99.90
4904;DHT22;2467;48.142;11.616;2023-07-09T02:18:37;21.90;99.90
4904;DHT22;2467;48.142;11.616;2023-07-09T02:19:10;21.90;99.90
4904;DHT22;2467;48.142;11.616;2023-07-09T02:19:42;21.90;99.90
4904;DHT22;2467;48.142;11.616;2023-07-09T02:20:14;21.90;99.90
4904;DHT22;2467;48.142;11.616;2023-07-09T02:20:47;21.90;99.90
4904;DHT22;2467;48.142;11.616;2023-07-09T02:21:19;21.80;99.90
4904;DHT22;2467;48.142;11.616;2023-07-09T02:21:52;21.80;99.90
4904;DHT22;2467;48.142;11.616;2023-07-09T02:22:24;21.80;99.90
4904;DHT22;2467;48.142;11.616;2023-07-09T02:22:57;21.80;99.90
4904;DHT22;2467;48.142;11.616;2023-07-09T02:23:29;21.80;99.90
4904;DHT22;2467;48.142;11.616;2023-07-09T02:24:01;21.80;99.90
4904;DHT22;2467;48.142;11.616;2023-07-09T02:24:33;21.80;99.90
4904;DHT22;2467;48.142;11.616;2023-07-09T02:25:06;21.80;99.90
4904;DHT22;2467;48.142;11.616;2023-07-09T02:25:39;21.80;99.90
4904;DHT22;2467;48.142;11.616;2023-07-09T02:26:11;21.80;99.90
4904;DHT22;2467;48.142;11.616;2023-07-09T02:26:43;21.80;99.90
4904;DHT22;2467;48.142;11.616;2023-07-09T02:27:17;21.80;99.90
4904;DHT22;2467;48.142;11.616;2023-07-09T02:27:49;21.90;99.90
4904;DHT22;2467;48.142;11.616;2023-07-09T02:28:21;21.80;99.90
4904;DHT22;2467;48.142;11.616;2023-07-09T02:28:54;21.80;99.90
4904;DHT22;2467;48.142;11.616;2023-07-09T02:29:27;21.90;99.90
4904;DHT22;2467;48.142;11.616;2023-07-09T02:29:59;21.90;99.90
4904;DHT22;2467;48.142;11.616;2023-07-09T02:30:31;21.90;99.90
4904;DHT22;2467;48.142;11.616;2023-07-09T02:31:04;21.90;99.90
4904;DHT22;2467;48.142;11.616;2023-07-09T02:31:37;21.90;99.90
4904;DHT22;2467;48.142;11.616;2023-07-09T02:32:16;21.90;99.90
4904;DHT22;2467;48.142;11.616;2023-07-09T02:32:49;21.90;99.90
4904;DHT22;2467;48.142;11.616;2023-07-09T02:33:21;21.90;99.90
4904;DHT22;2467;48.142;11.616;2023-07-09T02:33:55;21.90;99.90
4904;DHT22;2467;48.142;11.616;2023-07-09T02:34:28;21.90;99.90
4904;DHT22;2467;48.142;11.616;2023-07-09T02:35:01;21.80;99.90
4904;DHT22;2467;48.142;11.616;2023-07-09T02:35:33;21.90;99.90
4904;DHT22;2467;48.142;11.616;2023-07-09T02:36:07;21.90;99.90
4904;DHT22;2467;48.142;11.616;2023-07-09T02:36:39;21.90;99.90
4904;DHT22;2467;48.142;11.616;2023-07-09T02:37:16;21.90;99.90
4904;DHT22;2467;48.142;11.616;2023-07-09T02:37:49;21.90;99.90
4904;DHT22;2467;48.142;11.616;2023-07-09T02:38:21;21.90;99.90
4904;DHT22;2467;48.142;11.616;2023-07-09T02:38:54;21.90;99.90
4904;DHT22;2467;48.142;11.616;2023-07-09T02:39:26;21.90;99.90
4904;DHT22;2467;48.142;11.616;2023-07-09T02:39:58;21.90;99.90
4904;DHT22;2467;48.142;11.616;2023-07-09T02:40:30;21.90;99.90
4904;DHT22;2467;48.142;11.616;2023-07-09T02:41:05;21.90;99.90
4904;DHT22;2467;48.142;11.616;2023-07-09T02:41:37;21.90;99.90
4904;DHT22;2467;48.142;11.616;2023-07-09T02:42:09;21.90;99.90
4904;DHT22;2467;48.142;11.616;2023-07-09T02:42:42;21.90;99.90
4904;DHT22;2467;48.142;11.616;2023-07-09T02:43:14;21.90;99.90
4904;DHT22;2467;48.142;11.616;2023-07-09T02:43:46;21.90;99.90
4904;DHT22;2467;48.142;11.616;2023-07-09T02:44:18;21.90;99.90
4904;DHT22;2467;48.142;11.616;2023-07-09T02:44:51;21.90;99.90
4904;DHT22;2467;48.142;11.616;2023-07-09T02:45:23;21.90;99.90
4904;DHT22;2467;48.142;11.616;2023-07-09T02:45:55;21.90;99.90
4904;DHT22;2467;48.142;11.616;2023-07-09T02:46:28;21.90;99.90
4904;DHT22;2467;48.142;11.616;2023-07-09T02:47:00;22.00;99.90
4904;DHT22;2467;48.142;11.616;2023-07-09T02:47:32;22.00;99.90
4904;DHT22;2467;48.142;11.616;2023-07-09T02:48:05;22.00;99.90
4904;DHT22;2467;48.142;11.616;2023-07-09T02:48:37;22.00;99.90
4904;DHT22;2467;48.142;11.616;2023-07-09T02:49:11;21.90;99.90
4904;DHT22;2467;48.142;11.616;2023-07-09T02:49:43;21.90;99.90
4904;DHT22;2467;48.142;11.616;2023-07-09T02:50:16;22.00;99.90
4904;DHT22;2467;48.142;11.616;2023-07-09T02:50:48;22.00;99.90
4904;DHT22;2467;48.142;11.616;2023-07-09T02:51:19;21.90;99.90
4904;DHT22;2467;48.142;11.616;2023-07-09T02:51:51;21.90;99.90
4904;DHT22;2467;48.142;11.616;2023-07-09T02:52:25;22.00;99.90
4904;DHT22;2467;48.142;11.616;2023-07-09T02:52:58;22.00;99.90
4904;DHT22;2467;48.142;11.616;2023-07-09T02:53:30;22.00;99.90
4904;DHT22;2467;48.142;11.616;2023-07-09T02:54:03;21.90;99.90
4904;DHT22;2467;48.142;11.616;2023-07-09T02:54:35;21.90;99.90
4904;DHT22;2467;48.142;11.616;2023-07-09T02:55:08;21.90;99.90
4904;DHT22;2467;48.142;11.616;2023-07-09T02:55:41;21.90;99.90
4904;DHT22;2467;48.142;11.616;2023-07-09T02:56:12;21.90;99.90
4904;DHT22;2467;48.142;11.616;2023-07-09T02:56:44;21.90;99.90
4904;DHT22;2467;48.142;11.616;2023-07-09T02:57:16;21.90;99.90
4904;DHT22;2467;48.142;11.616;2023-07-09T02:57:48;21.90;99.90
4904;DHT22;2467;48.142;11.616;2023-07-09T02:58:21;21.90;99.90
4904;DHT22;2467;48.142;11.616;2023-07-09T02:58:53;21.90;99.90
4904;DHT22;2467;48.142;11.616;2023-07-09T02:59:25;21.90;99.90
4904;DHT22;2467;48.142;11.616;2023-07-09T02:59:58;21.90;99.90
4904;DHT22;2467;48.142;11.616;2023-07-09T03:00:31;21.90;99.90
4904;DHT22;2467;48.142;11.616;2023-07-09T03:01:03;21.90;99.90
4904;DHT22;2467;48.142;11.616;2023-07-09T03:01:37;21.90;99.90
4904;DHT22;2467;48.142;11.616;2023-07-09T03:02:10;21.90;99.90
4904;DHT22;2467;48.142;11.616;2023-07-09T03:02:42;21.90;99.90
4904;DHT22;2467;48.142;11.616;2023-07-09T03:03:14;21.90;99.90
4904;DHT22;2467;48.142;11.616;2023-07-09T03:03:47;21.90;99.90
4904;DHT22;2467;48.142;11.616;2023-07-09T03:04:19;22.00;99.90
4904;DHT22;2467;48.142;11.616;2023-07-09T03:04:51;22.00;99.90
4904;DHT22;2467;48.142;11.616;2023-07-09T03:05:24;22.00;99.90
4904;DHT22;2467;48.142;11.616;2023-07-09T03:05:56;21.90;99.90
4904;DHT22;2467;48.142;11.616;2023-07-09T03:06:29;21.90;99.90
4904;DHT22;2467;48.142;11.616;2023-07-09T03:07:01;22.00;99.90
4904;DHT22;2467;48.142;11.616;2023-07-09T03:07:35;22.00;99.90
4904;DHT22;2467;48.142;11.616;2023-07-09T03:08:07;21.90;99.90
4904;DHT22;2467;48.142;11.616;2023-07-09T03:08:39;22.00;99.90
4904;DHT22;2467;48.142;11.616;2023-07-09T03:09:10;22.00;99.90
4904;DHT22;2467;48.142;11.616;2023-07-09T03:09:43;22.00;99.90
4904;DHT22;2467;48.142;11.616;2023-07-09T03:10:16;21.90;99.90
4904;DHT22;2467;48.142;11.616;2023-07-09T03:10:48;21.90;99.90
4904;DHT22;2467;48.142;11.616;2023-07-09T03:11:20;21.90;99.90
4904;DHT22;2467;48.142;11.616;2023-07-09T03:11:53;22.00;99.90
4904;DHT22;2467;48.142;11.616;2023-07-09T03:12:25;21.90;99.90
4904;DHT22;2467;48.142;11.616;2023-07-09T03:12:57;21.90;99.90
4904;DHT22;2467;48.142;11.616;2023-07-09T03:13:29;21.90;99.90
4904;DHT22;2467;48.142;11.616;2023-07-09T03:14:02;21.90;99.90
4904;DHT22;2467;48.142;11.616;2023-07-09T03:14:35;22.00;99.90
4904;DHT22;2467;48.142;11.616;2023-07-09T03:15:07;22.00;99.90
4904;DHT22;2467;48.142;11.616;2023-07-09T03:15:39;21.90;99.90
4904;DHT22;2467;48.142;11.616;2023-07-09T03:16:12;21.90;99.90
4904;DHT22;2467;48.142;11.616;2023-07-09T03:16:45;21.90;99.90
4904;DHT22;2467;48.142;11.616;2023-07-09T03:17:17;21.90;99.90
4904;DHT22;2467;48.142;11.616;2023-07-09T03:17:49;21.80;99.90
4904;DHT22;2467;48.142;11.616;2023-07-09T03:18:22;21.90;99.90
4904;DHT22;2467;48.142;11.616;2023-07-09T03:18:55;21.80;99.90
4904;DHT22;2467;48.142;11.616;2023-07-09T03:19:26;21.80;99.90
4904;DHT22;2467;48.142;11.616;2023-07-09T03:19:58;21.80;99.90
4904;DHT22;2467;48.142;11.616;2023-07-09T03:20:32;21.80;99.90
4904;DHT22;2467;48.142;11.616;2023-07-09T03:21:04;21.80;99.90
4904;DHT22;2467;48.142;11.616;2023-07-09T03:21:36;21.80;99.90
4904;DHT22;2467;48.142;11.616;2023-07-09T03:22:08;21.80;99.90
4904;DHT22;2467;48.142;11.616;2023-07-09T03:22:42;21.80;99.90
4904;DHT22;2467;48.142;11.616;2023-07-09T03:23:14;21.80;99.90
4904;DHT22;2467;48.142;11.616;2023-07-09T03:23:45;21.80;99.90
4904;DHT22;2467;48.142;11.616;2023-07-09T03:24:17;21.80;99.90
4904;DHT22;2467;48.142;11.616;2023-07-09T03:24:51;21.80;99.90
4904;DHT22;2467;48.142;11.616;2023-07-09T03:25:23;21.80;99.90
4904;DHT22;2467;48.142;11.616;2023-07-09T03:25:55;21.80;99.90
4904;DHT22;2467;48.142;11.616;2023-07-09T03:26:27;21.80;99.90
4904;DHT22;2467;48.142;11.616;2023-07-09T03:27:00;21.80;99.90
4904;DHT22;2467;48.142;11.616;2023-07-09T03:27:32;21.70;99.90
4904;DHT22;2467;48.142;11.616;2023-07-09T03:28:04;21.80;99.90
4904;DHT22;2467;48.142;11.616;2023-07-09T03:28:36;21.70;99.90
4904;DHT22;2467;48.142;11.616;2023-07-09T03:29:08;21.80;99.90
4904;DHT22;2467;48.142;11.616;2023-07-09T03:29:40;21.80;99.90
4904;DHT22;2467;48.142;11.616;2023-07-09T03:30:12;21.80;99.90
4904;DHT22;2467;48.142;11.616;2023-07-09T03:30:46;21.70;99.90
4904;DHT22;2467;48.142;11.616;2023-07-09T03:31:19;21.70;99.90
4904;DHT22;2467;48.142;11.616;2023-07-09T03:31:52;21.80;99.90
4904;DHT22;2467;48.142;11.616;2023-07-09T03:32:24;21.80;99.90
4904;DHT22;2467;48.142;11.616;2023-07-09T03:32:56;21.70;99.90
4904;DHT22;2467;48.142;11.616;2023-07-09T03:33:29;21.70;99.90
4904;DHT22;2467;48.142;11.616;2023-07-09T03:34:01;21.70;99.90
4904;DHT22;2467;48.142;11.616;2023-07-09T03:34:33;21.80;99.90
4904;DHT22;2467;48.142;11.616;2023-07-09T03:35:06;21.70;99.90
4904;DHT22;2467;48.142;11.616;2023-07-09T03:35:40;21.70;99.90